PWSweather.com
Personal Weather Stations
Station Observations
KWABLAIN13
Ptl Weather, Blaine, WA

Ptl WeatherBlaine, WA

Lat: 48.997393, Lon: -122.748614

Elevation: 57

Station Type: Davis Advantage Pro 2

http://www.ptlnet.net

Latest ConditionsUpdated 4:25:03 PM PST Sunday, Jan 22, 2017
Currently Today's Max Today's Min Today's Average
Temperature 43.2°F6.2°C 47.2°F8.4°C 37.9°F3.3°C 42.3°F5.7°C
Dew Point 40.2°F4.6°C 40.6°F4.8°C 34.1°F1.2°C 37.4°F3.0°C
Winds 2.0 mph NE3.2 kmh NE 11.0 mph E17.7 kmh E - 2.5 mph 4.0 kmh
Wind Gusts 7.0 mph11.3 kmh 20.0 mph32.2 kmh - -
Humidity 89% 92% 63% 83%
Pressure 29.58 in1001.7 mb 29.60 in1002.4 mb 29.42 in996.3 mb -
Hour Temp Dew Point Humidity Winds Wind Gusts Pressure Precip Precip Rate Daily Precip Total
04:25 PM 43.2°F6.2°C 40.2°F4.6°C 89% 2.0 mph NE3.2 kmh NE 7.0 mph11.3 kmh 29.58 in1001.7 mb 0.00 in0.0 mm 0.00 in0.0 mm 0.02 in0.5 mm
04:10 PM 43.4°F6.3°C 40.4°F4.7°C 89% 5.0 mph N8.0 kmh N 6.0 mph9.7 kmh 29.57 in1001.4 mb 0.00 in0.0 mm 0.00 in0.0 mm 0.02 in0.5 mm
04:05 PM 43.4°F6.3°C 40.1°F4.5°C 88% 2.0 mph NNE3.2 kmh NNE 5.0 mph8.0 kmh 29.57 in1001.4 mb 0.00 in0.0 mm 0.00 in0.0 mm 0.02 in0.5 mm
03:50 PM 43.6°F6.4°C 40.3°F4.6°C 88% 3.0 mph NE4.8 kmh NE 3.0 mph4.8 kmh 29.56 in1001.0 mb 0.00 in0.0 mm 0.00 in0.0 mm 0.02 in0.5 mm
03:45 PM 43.6°F6.4°C 40.3°F4.6°C 88% 1.0 mph NE1.6 kmh NE 2.0 mph3.2 kmh 29.56 in1001.0 mb 0.00 in0.0 mm 0.00 in0.0 mm 0.02 in0.5 mm
03:30 PM 43.7°F6.5°C 40.4°F4.7°C 88% 1.0 mph NE1.6 kmh NE 5.0 mph8.0 kmh 29.56 in1001.0 mb 0.00 in0.0 mm 0.00 in0.0 mm 0.02 in0.5 mm
03:25 PM 43.8°F6.6°C 40.2°F4.6°C 87% 1.0 mph NE1.6 kmh NE 5.0 mph8.0 kmh 29.56 in1001.0 mb 0.00 in0.0 mm 0.00 in0.0 mm 0.02 in0.5 mm
03:10 PM 44.1°F6.7°C 40.2°F4.6°C 86% Calm Calm 5.0 mph8.0 kmh 29.56 in1001.0 mb 0.00 in0.0 mm 0.00 in0.0 mm 0.02 in0.5 mm
03:05 PM 44.2°F6.8°C 40.3°F4.6°C 86% 1.0 mph NE1.6 kmh NE 5.0 mph8.0 kmh 29.56 in1001.0 mb 0.00 in0.0 mm 0.00 in0.0 mm 0.02 in0.5 mm
02:50 PM 44.4°F6.9°C 40.5°F4.7°C 86% 2.0 mph ENE3.2 kmh ENE 6.0 mph9.7 kmh 29.56 in1001.0 mb 0.00 in0.0 mm 0.00 in0.0 mm 0.02 in0.5 mm
02:45 PM 44.3°F6.8°C 40.1°F4.5°C 85% 1.0 mph E1.6 kmh E 6.0 mph9.7 kmh 29.56 in1001.0 mb 0.00 in0.0 mm 0.00 in0.0 mm 0.02 in0.5 mm
02:29 PM 44.3°F6.8°C 40.1°F4.5°C 85% 1.0 mph ENE1.6 kmh ENE 4.0 mph6.4 kmh 29.55 in1000.7 mb 0.00 in0.0 mm 0.00 in0.0 mm 0.02 in0.5 mm
02:25 PM 44.4°F6.9°C 40.2°F4.6°C 85% Calm Calm 3.0 mph4.8 kmh 29.55 in1000.7 mb 0.00 in0.0 mm 0.00 in0.0 mm 0.02 in0.5 mm
02:09 PM 45.0°F7.2°C 40.5°F4.7°C 84% Calm Calm 5.0 mph8.0 kmh 29.54 in1000.3 mb 0.00 in0.0 mm 0.00 in0.0 mm 0.02 in0.5 mm
02:05 PM 45.2°F7.3°C 40.4°F4.7°C 83% 2.0 mph ENE3.2 kmh ENE 5.0 mph8.0 kmh 29.54 in1000.3 mb 0.00 in0.0 mm 0.00 in0.0 mm 0.02 in0.5 mm
01:50 PM 45.4°F7.4°C 40.6°F4.8°C 83% 6.0 mph SE9.7 kmh SE 8.0 mph12.9 kmh 29.54 in1000.3 mb 0.00 in0.0 mm 0.00 in0.0 mm 0.02 in0.5 mm
01:45 PM 45.4°F7.4°C 40.2°F4.6°C 82% 4.0 mph SE6.4 kmh SE 7.0 mph11.3 kmh 29.53 in1000.0 mb 0.00 in0.0 mm 0.00 in0.0 mm 0.02 in0.5 mm
01:30 PM 45.3°F7.4°C 40.1°F4.5°C 82% 7.0 mph E11.3 kmh E 13.0 mph20.9 kmh 29.53 in1000.0 mb 0.01 in0.3 mm 0.00 in0.0 mm 0.02 in0.5 mm
01:25 PM 45.1°F7.3°C 40.3°F4.6°C 83% 8.0 mph ESE12.9 kmh ESE 11.0 mph17.7 kmh 29.53 in1000.0 mb 0.01 in0.3 mm 0.00 in0.0 mm 0.02 in0.5 mm
01:09 PM 44.8°F7.1°C 40.6°F4.8°C 85% 2.0 mph NE3.2 kmh NE 8.0 mph12.9 kmh 29.53 in1000.0 mb 0.02 in0.5 mm 0.00 in0.0 mm 0.02 in0.5 mm
01:05 PM 44.7°F7.1°C 40.5°F4.7°C 85% 5.0 mph NE8.0 kmh NE 8.0 mph12.9 kmh 29.53 in1000.0 mb 0.02 in0.5 mm 0.00 in0.0 mm 0.02 in0.5 mm
12:49 PM 44.3°F6.8°C 40.1°F4.5°C 85% 11.0 mph E17.7 kmh E 11.0 mph17.7 kmh 29.53 in1000.0 mb 0.02 in0.5 mm 0.00 in0.0 mm 0.02 in0.5 mm
12:44 PM 44.2°F6.8°C 40.3°F4.6°C 86% 5.0 mph ESE8.0 kmh ESE 10.0 mph16.1 kmh 29.52 in999.7 mb 0.02 in0.5 mm 0.00 in0.0 mm 0.02 in0.5 mm
12:30 PM 43.9°F6.6°C 40.0°F4.4°C 86% 5.0 mph E8.0 kmh E 12.0 mph19.3 kmh 29.52 in999.7 mb 0.02 in0.5 mm 0.00 in0.0 mm 0.02 in0.5 mm
12:24 PM 43.9°F6.6°C 40.0°F4.4°C 86% 3.0 mph ENE4.8 kmh ENE 9.0 mph14.5 kmh 29.52 in999.7 mb 0.02 in0.5 mm 0.00 in0.0 mm 0.02 in0.5 mm
12:10 PM 43.9°F6.6°C 39.4°F4.1°C 84% 3.0 mph E4.8 kmh E 6.0 mph9.7 kmh 29.53 in1000.0 mb 0.02 in0.5 mm 0.12 in3.0 mm 0.02 in0.5 mm
12:05 PM 44.0°F6.7°C 39.2°F4.0°C 83% 5.0 mph E8.0 kmh E 6.0 mph9.7 kmh 29.52 in999.7 mb 0.01 in0.3 mm 0.00 in0.0 mm 0.01 in0.3 mm
11:50 AM 44.3°F6.8°C 38.9°F3.8°C 81% 2.0 mph ENE3.2 kmh ENE 7.0 mph11.3 kmh 29.52 in999.7 mb 0.01 in0.3 mm 0.00 in0.0 mm 0.01 in0.3 mm
11:45 AM 44.5°F6.9°C 38.1°F3.4°C 78% 5.0 mph ESE8.0 kmh ESE 7.0 mph11.3 kmh 29.52 in999.7 mb 0.01 in0.3 mm 0.00 in0.0 mm 0.01 in0.3 mm
11:30 AM 45.1°F7.3°C 37.7°F3.2°C 75% 1.0 mph SSE1.6 kmh SSE 6.0 mph9.7 kmh 29.52 in999.7 mb 0.01 in0.3 mm 0.12 in3.0 mm 0.01 in0.3 mm
11:25 AM 45.4°F7.4°C 37.6°F3.1°C 74% 3.0 mph SE4.8 kmh SE 6.0 mph9.7 kmh 29.52 in999.7 mb 0.00 in0.0 mm 0.00 in0.0 mm 0.00 in0.0 mm
11:10 AM 46.2°F7.9°C 36.6°F2.6°C 69% 3.0 mph SSE4.8 kmh SSE 10.0 mph16.1 kmh 29.51 in999.3 mb 0.00 in0.0 mm 0.00 in0.0 mm 0.00 in0.0 mm
11:05 AM 46.5°F8.1°C 36.2°F2.3°C 67% 3.0 mph SE4.8 kmh SE 9.0 mph14.5 kmh 29.51 in999.3 mb 0.00 in0.0 mm 0.00 in0.0 mm 0.00 in0.0 mm
10:50 AM 47.2°F8.4°C 35.3°F1.8°C 63% 2.0 mph SSE3.2 kmh SSE 8.0 mph12.9 kmh 29.50 in999.0 mb 0.00 in0.0 mm 0.00 in0.0 mm 0.00 in0.0 mm
10:45 AM 47.2°F8.4°C 35.3°F1.8°C 63% 5.0 mph E8.0 kmh E 7.0 mph11.3 kmh 29.49 in998.6 mb 0.00 in0.0 mm 0.00 in0.0 mm 0.00 in0.0 mm
10:29 AM 45.8°F7.7°C 35.1°F1.7°C 66% 4.0 mph E6.4 kmh E 14.0 mph22.5 kmh 29.48 in998.3 mb 0.00 in0.0 mm 0.00 in0.0 mm 0.00 in0.0 mm
10:25 AM 44.9°F7.2°C 34.6°F1.4°C 67% 7.0 mph E11.3 kmh E 14.0 mph22.5 kmh 29.48 in998.3 mb 0.00 in0.0 mm 0.00 in0.0 mm 0.00 in0.0 mm
10:10 AM 44.0°F6.7°C 35.2°F1.8°C 71% 5.0 mph ESE8.0 kmh ESE 20.0 mph32.2 kmh 29.47 in998.0 mb 0.00 in0.0 mm 0.00 in0.0 mm 0.00 in0.0 mm
10:05 AM 44.1°F6.7°C 35.3°F1.8°C 71% 4.0 mph E6.4 kmh E 20.0 mph32.2 kmh 29.47 in998.0 mb 0.00 in0.0 mm 0.00 in0.0 mm 0.00 in0.0 mm
09:50 AM 45.6°F7.6°C 35.7°F2.1°C 68% 7.0 mph SE11.3 kmh SE 10.0 mph16.1 kmh 29.46 in997.6 mb 0.00 in0.0 mm 0.00 in0.0 mm 0.00 in0.0 mm
09:45 AM 46.0°F7.8°C 35.7°F2.1°C 67% 5.0 mph ESE8.0 kmh ESE 10.0 mph16.1 kmh 29.46 in997.6 mb 0.00 in0.0 mm 0.00 in0.0 mm 0.00 in0.0 mm
09:30 AM 45.6°F7.6°C 34.9°F1.6°C 66% 5.0 mph ESE8.0 kmh ESE 11.0 mph17.7 kmh 29.44 in997.0 mb 0.00 in0.0 mm 0.00 in0.0 mm 0.00 in0.0 mm
09:25 AM 45.5°F7.5°C 34.8°F1.6°C 66% 3.0 mph E4.8 kmh E 11.0 mph17.7 kmh 29.44 in997.0 mb 0.00 in0.0 mm 0.00 in0.0 mm 0.00 in0.0 mm
09:09 AM 45.3°F7.4°C 35.0°F1.7°C 67% 7.0 mph E11.3 kmh E 15.0 mph24.1 kmh 29.43 in996.6 mb 0.00 in0.0 mm 0.00 in0.0 mm 0.00 in0.0 mm
09:05 AM 45.0°F7.2°C 35.1°F1.7°C 68% 5.0 mph E8.0 kmh E 12.0 mph19.3 kmh 29.43 in996.6 mb 0.00 in0.0 mm 0.00 in0.0 mm 0.00 in0.0 mm
08:50 AM 43.6°F6.4°C 35.2°F1.8°C 72% 8.0 mph E12.9 kmh E 13.0 mph20.9 kmh 29.43 in996.6 mb 0.00 in0.0 mm 0.00 in0.0 mm 0.00 in0.0 mm
08:45 AM 43.1°F6.2°C 35.1°F1.7°C 73% 7.0 mph ENE11.3 kmh ENE 10.0 mph16.1 kmh 29.43 in996.6 mb 0.00 in0.0 mm 0.00 in0.0 mm 0.00 in0.0 mm
08:30 AM 41.0°F5.0°C 35.0°F1.7°C 79% 2.0 mph NE3.2 kmh NE 2.0 mph3.2 kmh 29.42 in996.3 mb 0.00 in0.0 mm 0.00 in0.0 mm 0.00 in0.0 mm
08:25 AM 40.8°F4.9°C 34.8°F1.6°C 79% 2.0 mph NE3.2 kmh NE 10.0 mph16.1 kmh 29.42 in996.3 mb 0.00 in0.0 mm 0.00 in0.0 mm 0.00 in0.0 mm
08:10 AM 39.3°F4.1°C 34.6°F1.4°C 83% 2.0 mph ENE3.2 kmh ENE 6.0 mph9.7 kmh 29.42 in996.3 mb 0.00 in0.0 mm 0.00 in0.0 mm 0.00 in0.0 mm
08:05 AM 39.0°F3.9°C 34.6°F1.4°C 84% 4.0 mph ENE6.4 kmh ENE 6.0 mph9.7 kmh 29.42 in996.3 mb 0.00 in0.0 mm 0.00 in0.0 mm 0.00 in0.0 mm
07:50 AM 37.9°F3.3°C 34.1°F1.2°C 86% 3.0 mph ENE4.8 kmh ENE 4.0 mph6.4 kmh 29.43 in996.6 mb 0.00 in0.0 mm 0.00 in0.0 mm 0.00 in0.0 mm
07:45 AM 38.1°F3.4°C 34.3°F1.3°C 86% Calm Calm 2.0 mph3.2 kmh 29.43 in996.6 mb 0.00 in0.0 mm 0.00 in0.0 mm 0.00 in0.0 mm
07:30 AM 38.9°F3.8°C 34.8°F1.6°C 85% Calm Calm 2.0 mph3.2 kmh 29.43 in996.6 mb 0.00 in0.0 mm 0.00 in0.0 mm 0.00 in0.0 mm
07:24 AM 39.1°F3.9°C 35.0°F1.7°C 85% Calm Calm 2.0 mph3.2 kmh 29.43 in996.6 mb 0.00 in0.0 mm 0.00 in0.0 mm 0.00 in0.0 mm
07:10 AM 39.8°F4.3°C 35.4°F1.9°C 84% Calm Calm -- 29.43 in996.6 mb 0.00 in0.0 mm 0.00 in0.0 mm 0.00 in0.0 mm
07:05 AM 40.0°F4.4°C 35.9°F2.2°C 85% 2.0 mph ENE3.2 kmh ENE 6.0 mph9.7 kmh 29.42 in996.3 mb 0.00 in0.0 mm 0.00 in0.0 mm 0.00 in0.0 mm
06:50 AM 39.9°F4.4°C 35.8°F2.1°C 85% 3.0 mph NNE4.8 kmh NNE 8.0 mph12.9 kmh 29.42 in996.3 mb 0.00 in0.0 mm 0.00 in0.0 mm 0.00 in0.0 mm
06:44 AM 39.9°F4.4°C 35.8°F2.1°C 85% 2.0 mph N3.2 kmh N 8.0 mph12.9 kmh 29.42 in996.3 mb 0.00 in0.0 mm 0.00 in0.0 mm 0.00 in0.0 mm
06:30 AM 39.7°F4.3°C 35.9°F2.2°C 86% 4.0 mph NE6.4 kmh NE 9.0 mph14.5 kmh 29.43 in996.6 mb 0.00 in0.0 mm 0.00 in0.0 mm 0.00 in0.0 mm
06:25 AM 39.5°F4.2°C 36.0°F2.2°C 87% 4.0 mph NNE6.4 kmh NNE 9.0 mph14.5 kmh 29.44 in997.0 mb 0.00 in0.0 mm 0.00 in0.0 mm 0.00 in0.0 mm
06:10 AM 39.4°F4.1°C 35.9°F2.2°C 87% 6.0 mph NE9.7 kmh NE 8.0 mph12.9 kmh 29.46 in997.6 mb 0.00 in0.0 mm 0.00 in0.0 mm 0.00 in0.0 mm
06:05 AM 39.4°F4.1°C 35.9°F2.2°C 87% 3.0 mph NE4.8 kmh NE 7.0 mph11.3 kmh 29.46 in997.6 mb 0.00 in0.0 mm 0.00 in0.0 mm 0.00 in0.0 mm
05:49 AM 39.5°F4.2°C 36.0°F2.2°C 87% 1.0 mph NNE1.6 kmh NNE 9.0 mph14.5 kmh 29.47 in998.0 mb 0.00 in0.0 mm 0.00 in0.0 mm 0.00 in0.0 mm
05:45 AM 39.3°F4.1°C 36.1°F2.3°C 88% 3.0 mph NE4.8 kmh NE 9.0 mph14.5 kmh 29.47 in998.0 mb 0.00 in0.0 mm 0.00 in0.0 mm 0.00 in0.0 mm
05:30 AM 39.5°F4.2°C 36.3°F2.4°C 88% 3.0 mph NNE4.8 kmh NNE 6.0 mph9.7 kmh 29.48 in998.3 mb 0.00 in0.0 mm 0.00 in0.0 mm 0.00 in0.0 mm
05:24 AM 39.5°F4.2°C 36.3°F2.4°C 88% 2.0 mph NNE3.2 kmh NNE 6.0 mph9.7 kmh 29.48 in998.3 mb 0.00 in0.0 mm 0.00 in0.0 mm 0.00 in0.0 mm
05:10 AM 39.2°F4.0°C 36.2°F2.3°C 89% 2.0 mph NE3.2 kmh NE 5.0 mph8.0 kmh 29.50 in999.0 mb 0.00 in0.0 mm 0.00 in0.0 mm 0.00 in0.0 mm
05:05 AM 39.2°F4.0°C 36.2°F2.3°C 89% 2.0 mph NE3.2 kmh NE 4.0 mph6.4 kmh 29.50 in999.0 mb 0.00 in0.0 mm 0.00 in0.0 mm 0.00 in0.0 mm
04:50 AM 39.1°F3.9°C 36.1°F2.3°C 89% 1.0 mph NE1.6 kmh NE 3.0 mph4.8 kmh 29.51 in999.3 mb 0.00 in0.0 mm 0.00 in0.0 mm 0.00 in0.0 mm
04:45 AM 39.2°F4.0°C 36.2°F2.3°C 89% 2.0 mph NE3.2 kmh NE 2.0 mph3.2 kmh 29.51 in999.3 mb 0.00 in0.0 mm 0.00 in0.0 mm 0.00 in0.0 mm
04:29 AM 39.4°F4.1°C 36.2°F2.3°C 88% 2.0 mph SE3.2 kmh SE 5.0 mph8.0 kmh 29.52 in999.7 mb 0.00 in0.0 mm 0.00 in0.0 mm 0.00 in0.0 mm
04:25 AM 39.6°F4.2°C 36.4°F2.4°C 88% 3.0 mph ESE4.8 kmh ESE 5.0 mph8.0 kmh 29.52 in999.7 mb 0.00 in0.0 mm 0.00 in0.0 mm 0.00 in0.0 mm
04:09 AM 40.1°F4.5°C 36.6°F2.6°C 87% Calm Calm -- 29.53 in1000.0 mb 0.00 in0.0 mm 0.00 in0.0 mm 0.00 in0.0 mm
04:05 AM 40.4°F4.7°C 36.8°F2.7°C 87% Calm Calm -- 29.53 in1000.0 mb 0.00 in0.0 mm 0.00 in0.0 mm 0.00 in0.0 mm
03:50 AM 41.1°F5.1°C 37.5°F3.1°C 87% Calm Calm 1.0 mph1.6 kmh 29.54 in1000.3 mb 0.00 in0.0 mm 0.00 in0.0 mm 0.00 in0.0 mm
03:44 AM 41.2°F5.1°C 37.6°F3.1°C 87% Calm Calm 1.0 mph1.6 kmh 29.55 in1000.7 mb 0.00 in0.0 mm 0.00 in0.0 mm 0.00 in0.0 mm
03:30 AM 41.3°F5.2°C 37.7°F3.2°C 87% Calm Calm 5.0 mph8.0 kmh 29.55 in1000.7 mb 0.00 in0.0 mm 0.00 in0.0 mm 0.00 in0.0 mm
03:25 AM 41.2°F5.1°C 37.6°F3.1°C 87% Calm Calm 4.0 mph6.4 kmh 29.55 in1000.7 mb 0.00 in0.0 mm 0.00 in0.0 mm 0.00 in0.0 mm
03:10 AM 41.3°F5.2°C 37.7°F3.2°C 87% 1.0 mph NE1.6 kmh NE 5.0 mph8.0 kmh 29.55 in1000.7 mb 0.00 in0.0 mm 0.00 in0.0 mm 0.00 in0.0 mm
03:05 AM 41.1°F5.1°C 37.5°F3.1°C 87% 3.0 mph NE4.8 kmh NE 4.0 mph6.4 kmh 29.56 in1001.0 mb 0.00 in0.0 mm 0.00 in0.0 mm 0.00 in0.0 mm
02:50 AM 40.9°F4.9°C 37.3°F2.9°C 87% Calm Calm 3.0 mph4.8 kmh 29.56 in1001.0 mb 0.00 in0.0 mm 0.00 in0.0 mm 0.00 in0.0 mm
02:45 AM 41.0°F5.0°C 38.9°F3.8°C 92% Calm Calm 3.0 mph4.8 kmh 29.56 in1001.0 mb 0.00 in0.0 mm 0.00 in0.0 mm 0.00 in0.0 mm
02:29 AM 41.1°F5.1°C 37.5°F3.1°C 87% Calm Calm 5.0 mph8.0 kmh 29.56 in1001.0 mb 0.00 in0.0 mm 0.00 in0.0 mm 0.00 in0.0 mm
02:25 AM 41.1°F5.1°C 37.5°F3.1°C 87% 2.0 mph NE3.2 kmh NE 5.0 mph8.0 kmh 29.56 in1001.0 mb 0.00 in0.0 mm 0.00 in0.0 mm 0.00 in0.0 mm
02:09 AM 40.9°F4.9°C 37.3°F2.9°C 87% 5.0 mph NE8.0 kmh NE 6.0 mph9.7 kmh 29.56 in1001.0 mb 0.00 in0.0 mm 0.00 in0.0 mm 0.00 in0.0 mm
02:04 AM 40.9°F4.9°C 37.3°F2.9°C 87% 2.0 mph NE3.2 kmh NE 6.0 mph9.7 kmh 29.56 in1001.0 mb 0.00 in0.0 mm 0.00 in0.0 mm 0.00 in0.0 mm
01:50 AM 40.9°F4.9°C 37.6°F3.1°C 88% Calm Calm 3.0 mph4.8 kmh 29.57 in1001.4 mb 0.00 in0.0 mm 0.00 in0.0 mm 0.00 in0.0 mm
01:45 AM 40.8°F4.9°C 37.5°F3.1°C 88% Calm Calm 3.0 mph4.8 kmh 29.57 in1001.4 mb 0.00 in0.0 mm 0.00 in0.0 mm 0.00 in0.0 mm
01:30 AM 40.8°F4.9°C 37.5°F3.1°C 88% Calm Calm 2.0 mph3.2 kmh 29.58 in1001.7 mb 0.00 in0.0 mm 0.00 in0.0 mm 0.00 in0.0 mm
01:25 AM 40.8°F4.9°C 37.5°F3.1°C 88% Calm Calm 1.0 mph1.6 kmh 29.58 in1001.7 mb 0.00 in0.0 mm 0.00 in0.0 mm 0.00 in0.0 mm
01:10 AM 40.9°F4.9°C 37.3°F2.9°C 87% Calm Calm 2.0 mph3.2 kmh 29.59 in1002.0 mb 0.00 in0.0 mm 0.00 in0.0 mm 0.00 in0.0 mm
01:05 AM 40.9°F4.9°C 37.3°F2.9°C 87% Calm Calm 2.0 mph3.2 kmh 29.59 in1002.0 mb 0.00 in0.0 mm 0.00 in0.0 mm 0.00 in0.0 mm
12:50 AM 41.1°F5.1°C 37.5°F3.1°C 87% 2.0 mph E3.2 kmh E 3.0 mph4.8 kmh 29.60 in1002.4 mb 0.00 in0.0 mm 0.00 in0.0 mm 0.00 in0.0 mm
12:44 AM 41.1°F5.1°C 37.5°F3.1°C 87% Calm Calm 3.0 mph4.8 kmh 29.59 in1002.0 mb 0.00 in0.0 mm 0.00 in0.0 mm 0.00 in0.0 mm
12:30 AM 41.0°F5.0°C 37.4°F3.0°C 87% Calm Calm 4.0 mph6.4 kmh 29.59 in1002.0 mb 0.00 in0.0 mm 0.00 in0.0 mm 0.00 in0.0 mm
12:25 AM 41.0°F5.0°C 38.9°F3.8°C 92% Calm Calm 4.0 mph6.4 kmh 29.59 in1002.0 mb 0.00 in0.0 mm 0.00 in0.0 mm 0.00 in0.0 mm
12:10 AM 41.3°F5.2°C 37.7°F3.2°C 87% Calm Calm 3.0 mph4.8 kmh 29.58 in1001.7 mb 0.00 in0.0 mm 0.00 in0.0 mm 0.00 in0.0 mm
12:05 AM 41.3°F5.2°C 37.4°F3.0°C 86% 1.0 mph NE1.6 kmh NE 3.0 mph4.8 kmh 29.58 in1001.7 mb 0.00 in0.0 mm 0.00 in0.0 mm 0.00 in0.0 mm